Time;durP1;ratioP1;P1;durP2;ratioP2;P2;SDS_P1;SDS_P2;PMS_P1;PMS_P2;Temp;Humidity;BMP_temperature;BMP_pressure;BME280_temperature;BME280_humidity;BME280_pressure;Samples;Min_cycle;Max_cycle;Signal;HPM_P1;HPM_P2
2023/01/23 00:04:48;;;;;;;;;;;;;;;;;;;;;
2023/01/23 00:10:30;;;;;;;88.80;21.80;;;2.50;99.90;;;;;;4931164;29;20223;-85
2023/01/23 00:13:07;;;;;;;93.63;22.02;;;2.50;99.90;;;;;;4941711;29;20180;-85
2023/01/23 00:16:07;;;;;;;100.15;22.50;;;2.50;99.90;;;;;;4924967;29;20278;-85
2023/01/23 00:19:13;;;;;;;;;;;;;;;;;;;;;
2023/01/23 00:22:27;;;;;;;;;;;;;;;;;;;;;
2023/01/23 00:25:39;;;;;;;99.38;23.08;;;2.50;99.90;;;;;;4945977;29;20298;-85
2023/01/23 00:29:23;;;;;;;92.95;19.05;;;2.50;99.90;;;;;;4961900;28;20182;-85
2023/01/23 00:31:49;;;;;;;93.70;20.70;;;2.50;99.90;;;;;;4958124;28;20188;-85
2023/01/23 00:34:35;;;;;;;;;;;;;;;;;;;;;
2023/01/23 00:37:19;;;;;;;91.00;18.60;;;2.60;99.90;;;;;;4962579;29;20239;-85
2023/01/23 00:40:02;;;;;;;96.20;19.85;;;2.50;99.90;;;;;;4961205;29;20268;-85
2023/01/23 00:43:09;;;;;;;88.80;18.15;;;2.60;99.90;;;;;;4960417;28;20199;-86
2023/01/23 00:45:49;;;;;;;95.15;20.65;;;2.50;99.90;;;;;;4962110;29;20230;-85
2023/01/23 00:48:33;;;;;;;92.10;19.65;;;2.60;99.90;;;;;;4962327;28;20266;-86
2023/01/23 00:51:11;;;;;;;93.25;20.60;;;2.50;99.90;;;;;;4960689;28;20246;-86
2023/01/23 00:54:06;;;;;;;94.93;21.50;;;2.50;99.90;;;;;;4961922;28;20172;-85
2023/01/23 00:56:57;;;;;;;;;;;;;;;;;;;;;
2023/01/23 00:59:31;;;;;;;88.85;18.98;;;2.60;99.90;;;;;;4962092;29;20247;-85
2023/01/23 01:01:57;;;;;;;90.10;19.75;;;2.60;99.90;;;;;;4960481;28;20207;-85
2023/01/23 01:04:48;;;;;;;94.90;20.35;;;2.60;99.90;;;;;;4960005;29;20703;-85
2023/01/23 01:07:46;;;;;;;97.18;21.35;;;2.60;99.90;;;;;;4960414;29;20655;-85
2023/01/23 01:10:15;;;;;;;88.35;17.55;;;2.60;99.90;;;;;;4960780;28;20223;-85
2023/01/23 01:12:51;;;;;;;87.70;18.08;;;2.60;99.90;;;;;;4962286;29;20160;-85
2023/01/23 01:15:19;;;;;;;91.10;19.88;;;2.50;99.90;;;;;;4962045;28;20156;-85
2023/01/23 01:18:02;;;;;;;90.15;19.63;;;2.60;99.90;;;;;;4961092;29;20250;-84
2023/01/23 01:20:33;;;;;;;92.75;18.48;;;2.60;99.90;;;;;;4959744;28;20689;-84
2023/01/23 01:23:05;;;;;;;88.45;18.67;;;2.60;99.90;;;;;;4960871;29;20204;-85
2023/01/23 01:28:38;;;;;;;89.57;19.13;;;2.60;99.90;;;;;;4920035;29;20173;-85
2023/01/23 01:31:27;;;;;;;91.55;19.10;;;2.60;99.90;;;;;;4919901;29;20243;-84
2023/01/23 01:34:03;;;;;;;88.57;17.02;;;2.60;99.90;;;;;;4966418;28;20179;-85
2023/01/23 01:36:32;;;;;;;91.40;19.45;;;2.60;99.90;;;;;;4960305;29;20160;-85
2023/01/23 01:39:00;;;;;;;88.53;18.80;;;2.60;99.90;;;;;;4958878;28;20705;-84
2023/01/23 01:41:26;;;;;;;88.70;18.45;;;2.60;99.90;;;;;;4960237;28;20203;-86
2023/01/23 01:43:55;;;;;;;90.27;19.20;;;2.60;99.90;;;;;;4959296;28;20160;-83
2023/01/23 01:46:25;;;;;;;89.50;19.63;;;2.60;99.90;;;;;;4958599;28;20437;-83
2023/01/23 01:49:21;;;;;;;89.95;18.95;;;2.60;99.90;;;;;;4959525;29;20179;-83
2023/01/23 01:51:56;;;;;;;87.63;17.63;;;2.60;99.90;;;;;;4958995;28;20568;-85
2023/01/23 01:54:37;;;;;;;87.78;18.38;;;2.60;99.90;;;;;;4962089;28;20182;-85
2023/01/23 01:57:25;;;;;;;89.93;18.45;;;2.70;99.90;;;;;;4967516;29;20174;-85
2023/01/23 02:00:06;;;;;;;85.15;17.52;;;2.60;99.90;;;;;;4965200;28;20240;-85
2023/01/23 02:02:57;;;;;;;91.15;18.08;;;2.60;99.90;;;;;;4964907;29;20206;-85
2023/01/23 02:05:38;;;;;;;91.60;18.13;;;2.60;99.90;;;;;;4965161;29;20255;-85
2023/01/23 02:08:16;;;;;;;91.13;19.77;;;2.60;99.90;;;;;;4966234;29;20145;-85
2023/01/23 02:10:45;;;;;;;89.88;18.55;;;2.70;99.90;;;;;;4965960;29;20745;-85
2023/01/23 02:13:35;;;;;;;89.78;17.67;;;2.60;99.90;;;;;;4966401;29;20248;-85
2023/01/23 02:16:31;;;;;;;89.57;18.38;;;2.70;99.90;;;;;;4966754;29;20159;-85
2023/01/23 02:19:10;;;;;;;92.03;17.08;;;2.60;99.90;;;;;;4966740;28;20171;-85
2023/01/23 02:21:38;;;;;;;93.40;20.15;;;2.60;99.90;;;;;;4966547;28;20199;-85
2023/01/23 02:24:34;;;;;;;87.63;18.15;;;2.60;99.90;;;;;;4965937;29;20248;-84
2023/01/23 02:27:05;;;;;;;89.25;17.85;;;2.70;99.90;;;;;;4966862;28;20668;-85
2023/01/23 02:29:47;;;;;;;91.63;19.05;;;2.60;99.90;;;;;;4965246;29;20171;-84
2023/01/23 02:32:12;;;;;;;93.85;20.83;;;2.60;99.90;;;;;;4962544;29;20167;-84
2023/01/23 02:34:39;;;;;;;89.77;17.77;;;2.60;99.90;;;;;;4962383;29;20168;-84
2023/01/23 02:37:07;;;;;;;92.93;20.30;;;2.70;99.90;;;;;;4963035;28;20407;-84
2023/01/23 02:39:38;;;;;;;91.97;18.98;;;2.60;99.90;;;;;;4961324;28;20603;-84
2023/01/23 02:42:09;;;;;;;90.20;20.33;;;2.60;99.90;;;;;;4962961;28;20243;-83
2023/01/23 02:44:35;;;;;;;88.43;18.65;;;2.60;99.90;;;;;;4962659;29;20180;-83
2023/01/23 02:47:03;;;;;;;89.57;18.00;;;2.60;99.90;;;;;;4962286;29;20172;-83
2023/01/23 02:49:30;;;;;;;88.30;17.25;;;2.60;99.90;;;;;;4962460;29;20435;-85
2023/01/23 02:51:56;;;;;;;88.93;18.85;;;2.60;99.90;;;;;;4960617;28;20287;-84
2023/01/23 02:54:39;;;;;;;89.10;19.33;;;2.60;99.90;;;;;;4960824;29;20187;-83
2023/01/23 02:57:22;;;;;;;92.28;19.77;;;2.60;99.90;;;;;;4961492;29;20195;-85
2023/01/23 03:02:38;;;;;;;87.63;18.80;;;2.70;99.90;;;;;;4962286;29;20246;-85
2023/01/23 03:05:04;;;;;;;87.97;18.00;;;2.60;99.90;;;;;;4961590;29;20168;-85
2023/01/23 03:07:30;;;;;;;88.82;18.42;;;2.60;99.90;;;;;;4960105;28;20175;-85
2023/01/23 03:09:58;;;;;;;90.67;18.70;;;2.70;99.90;;;;;;4962681;28;20172;-85
2023/01/23 03:12:24;;;;;;;99.45;21.80;;;2.70;99.90;;;;;;4960667;28;20443;-83
2023/01/23 03:14:53;;;;;;;91.93;20.60;;;2.70;99.90;;;;;;4961514;29;20207;-84
2023/01/23 03:17:22;;;;;;;91.68;21.00;;;2.70;99.90;;;;;;4960349;29;20271;-85
2023/01/23 03:19:48;;;;;;;87.13;19.30;;;2.70;99.90;;;;;;4960133;28;20263;-84
2023/01/23 03:22:19;;;;;;;93.00;21.00;;;2.70;99.90;;;;;;4960393;29;20235;-84
2023/01/23 03:24:48;;;;;;;91.07;21.13;;;2.70;99.90;;;;;;4960887;29;20423;-84
2023/01/23 03:27:13;;;;;;;91.53;19.88;;;2.70;99.90;;;;;;4960641;29;20238;-83
2023/01/23 03:32:29;;;;;;;92.03;19.55;;;2.60;99.90;;;;;;4960743;29;20407;-84
2023/01/23 03:34:58;;;;;;;87.75;18.48;;;2.70;99.90;;;;;;4959752;28;20172;-85
2023/01/23 03:37:27;;;;;;;86.60;18.23;;;2.70;99.90;;;;;;4961217;29;20176;-83
2023/01/23 03:42:36;;;;;;;91.55;19.80;;;2.70;99.90;;;;;;4960441;29;20678;-85
2023/01/23 03:45:03;;;;;;;94.37;20.90;;;2.70;99.90;;;;;;4959827;29;20179;-85
2023/01/23 03:47:28;;;;;;;91.00;19.15;;;2.60;99.90;;;;;;4959835;28;20238;-84
2023/01/23 03:49:54;;;;;;;90.40;18.77;;;2.60;99.90;;;;;;4961322;28;20227;-85
2023/01/23 03:52:20;;;;;;;88.90;19.23;;;2.50;99.90;;;;;;4960363;29;20171;-85
2023/01/23 03:54:45;;;;;;;92.60;21.90;;;2.60;99.90;;;;;;4959328;29;20179;-85
2023/01/23 03:57:11;;;;;;;90.87;21.67;;;2.60;99.90;;;;;;4960057;29;20187;-84
2023/01/23 03:59:37;;;;;;;92.70;21.60;;;2.60;99.90;;;;;;4960247;29;20227;-85
2023/01/23 04:02:05;;;;;;;89.77;20.80;;;2.60;99.90;;;;;;4960629;28;20211;-84
2023/01/23 04:04:32;;;;;;;91.13;21.30;;;2.60;99.90;;;;;;4959772;29;20580;-85
2023/01/23 04:06:58;;;;;;;84.68;19.67;;;2.60;99.90;;;;;;4959871;29;20220;-84
2023/01/23 04:09:26;;;;;;;91.50;23.60;;;2.60;99.90;;;;;;4961202;29;20160;-86
2023/01/23 04:11:53;;;;;;;94.90;24.65;;;2.60;99.90;;;;;;4958496;28;20238;-84
2023/01/23 04:14:20;;;;;;;91.32;21.45;;;2.60;99.90;;;;;;4960212;28;20203;-84
2023/01/23 04:16:52;;;;;;;89.38;22.30;;;2.50;99.90;;;;;;4958614;29;20179;-85
2023/01/23 04:19:18;;;;;;;90.80;22.83;;;2.50;99.90;;;;;;4959151;28;20215;-85
2023/01/23 04:21:48;;;;;;;93.03;25.42;;;2.50;99.90;;;;;;4958700;28;20203;-85
2023/01/23 04:24:17;;;;;;;91.30;20.35;;;2.50;99.90;;;;;;4959808;29;20175;-84
2023/01/23 04:26:43;;;;;;;90.00;21.02;;;2.50;99.90;;;;;;4960741;29;20176;-84
2023/01/23 04:29:11;;;;;;;88.03;21.00;;;2.50;99.90;;;;;;4958645;29;20571;-85
2023/01/23 04:31:37;;;;;;;90.65;21.92;;;2.60;99.90;;;;;;4960588;28;20190;-86
2023/01/23 04:34:06;;;;;;;88.70;20.67;;;2.50;99.90;;;;;;4961002;29;20242;-85
2023/01/23 04:36:32;;;;;;;96.47;23.13;;;2.60;99.90;;;;;;4960587;29;20404;-85
2023/01/23 04:39:06;;;;;;;92.20;20.37;;;2.50;99.90;;;;;;4960733;29;20643;-84
2023/01/23 04:41:35;;;;;;;89.13;22.63;;;2.60;99.90;;;;;;4959554;29;20200;-84
2023/01/23 04:44:25;;;;;;;92.40;23.20;;;2.60;99.90;;;;;;4959779;28;20168;-85
2023/01/23 04:47:00;;;;;;;93.05;21.70;;;2.60;99.90;;;;;;4959178;29;20185;-85
2023/01/23 04:49:33;;;;;;;86.85;21.50;;;2.50;99.90;;;;;;4961045;29;20191;-85
2023/01/23 04:52:05;;;;;;;89.03;20.98;;;2.60;99.90;;;;;;4961936;28;20675;-85
2023/01/23 04:54:52;;;;;;;87.60;20.00;;;2.60;99.90;;;;;;4962198;28;20184;-85
2023/01/23 04:57:21;;;;;;;89.00;20.67;;;2.60;99.90;;;;;;4962896;28;20187;-85
2023/01/23 04:59:57;;;;;;;84.10;19.58;;;2.50;99.90;;;;;;4963557;28;20164;-85
2023/01/23 05:02:32;;;;;;;89.72;18.45;;;2.50;99.90;;;;;;4963017;28;20184;-85
2023/01/23 05:05:21;;;;;;;91.78;20.75;;;2.50;99.90;;;;;;4962964;29;20148;-85
2023/01/23 05:07:53;;;;;;;88.38;19.42;;;2.50;99.90;;;;;;4963497;28;20149;-85
2023/01/23 05:11:12;;;;;;;89.80;22.58;;;2.50;99.90;;;;;;4961759;28;20223;-84
2023/01/23 05:13:29;;;;;;;93.13;23.00;;;2.50;99.90;;;;;;4949969;28;20241;-84
2023/01/23 05:16:03;;;;;;;90.63;23.13;;;2.50;99.90;;;;;;4961154;29;20667;-85
2023/01/23 05:18:29;;;;;;;92.18;23.95;;;2.50;99.90;;;;;;5088761;23;21625;-84
2023/01/23 05:20:55;;;;;;;87.37;21.90;;;2.50;99.90;;;;;;5010906;28;20218;-84
2023/01/23 05:23:21;;;;;;;91.17;22.27;;;2.50;99.90;;;;;;5007580;28;20205;-84
2023/01/23 05:25:49;;;;;;;88.73;22.03;;;2.50;99.90;;;;;;5011228;28;20406;-84
2023/01/23 05:28:15;;;;;;;90.75;24.38;;;2.40;99.90;;;;;;5011084;28;20201;-84
2023/01/23 05:30:41;;;;;;;91.00;26.90;;;2.50;99.90;;;;;;4996649;28;20186;-84
2023/01/23 05:33:06;;;;;;;90.73;29.00;;;2.50;99.90;;;;;;5015643;28;20163;-84
2023/01/23 05:35:38;;;;;;;92.00;30.17;;;2.50;99.90;;;;;;4998406;28;20425;-84
2023/01/23 05:38:04;;;;;;;101.22;28.17;;;2.40;99.90;;;;;;4998028;28;20173;-84
2023/01/23 05:40:50;;;;;;;90.27;27.03;;;2.30;99.90;;;;;;4997941;28;20280;-84
2023/01/23 05:43:16;;;;;;;89.20;26.63;;;2.30;99.90;;;;;;4997912;28;20418;-84
2023/01/23 05:45:45;;;;;;;94.80;27.38;;;2.30;99.90;;;;;;5015597;28;20642;-84
2023/01/23 05:48:11;;;;;;;90.15;23.15;;;2.30;99.90;;;;;;5015408;28;20167;-82
2023/01/23 05:50:36;;;;;;;91.47;24.93;;;2.30;99.90;;;;;;5015187;28;20194;-82
2023/01/23 05:53:03;;;;;;;87.47;19.30;;;2.30;99.90;;;;;;5015414;28;20178;-82
2023/01/23 05:55:29;;;;;;;87.85;18.42;;;2.30;99.90;;;;;;4997964;28;20158;-82
2023/01/23 05:57:54;;;;;;;92.03;21.33;;;2.30;99.90;;;;;;5014762;28;20177;-82
2023/01/23 06:00:21;;;;;;;87.07;19.97;;;2.30;99.90;;;;;;4997906;28;20502;-82
2023/01/23 06:02:47;;;;;;;88.32;18.85;;;2.30;99.90;;;;;;5014838;28;20206;-82
2023/01/23 06:05:13;;;;;;;88.72;18.95;;;2.30;99.90;;;;;;5014882;28;20167;-82
2023/01/23 06:07:38;;;;;;;85.47;17.07;;;2.30;99.90;;;;;;4997770;28;20177;-82
2023/01/23 06:10:05;;;;;;;84.30;16.60;;;2.30;99.90;;;;;;5012324;28;20493;-84
2023/01/23 06:12:31;;;;;;;86.25;19.17;;;2.40;99.90;;;;;;5014456;28;20181;-84
2023/01/23 06:14:57;;;;;;;87.50;21.30;;;2.40;99.90;;;;;;4997813;28;20170;-82
2023/01/23 06:17:22;;;;;;;90.00;20.57;;;2.40;99.90;;;;;;4997286;28;20408;-82
2023/01/23 06:19:48;;;;;;;85.60;18.30;;;2.30;99.90;;;;;;5014540;28;20182;-82
2023/01/23 06:22:14;;;;;;;86.33;18.50;;;2.30;99.90;;;;;;4997278;28;20206;-84
2023/01/23 06:24:40;;;;;;;88.80;20.70;;;2.30;99.90;;;;;;5013086;28;20468;-84
2023/01/23 06:27:08;;;;;;;89.77;27.00;;;2.30;99.90;;;;;;4997212;28;20469;-84
2023/01/23 06:29:35;;;;;;;92.60;26.42;;;2.30;99.90;;;;;;4996989;28;20265;-84
2023/01/23 06:32:00;;;;;;;87.35;25.50;;;2.30;99.90;;;;;;4996860;28;20277;-84
2023/01/23 06:34:26;;;;;;;88.00;27.30;;;2.20;99.90;;;;;;4996725;28;20171;-84
2023/01/23 06:36:52;;;;;;;84.77;22.47;;;2.20;99.90;;;;;;4994816;28;20422;-84
2023/01/23 06:39:18;;;;;;;85.70;22.10;;;2.20;99.90;;;;;;5012478;28;20158;-84
2023/01/23 06:41:44;;;;;;;87.63;26.00;;;2.20;99.90;;;;;;5011410;28;20221;-84
2023/01/23 06:44:10;;;;;;;91.63;24.52;;;2.10;99.90;;;;;;4995680;28;20409;-83
2023/01/23 06:46:35;;;;;;;88.70;27.85;;;2.20;99.90;;;;;;5012953;28;20167;-84
2023/01/23 06:49:02;;;;;;;85.80;27.30;;;2.20;99.90;;;;;;5012158;28;20163;-84
2023/01/23 06:51:27;;;;;;;88.45;26.42;;;2.20;99.90;;;;;;5012311;28;20194;-83
2023/01/23 06:53:53;;;;;;;89.47;26.90;;;2.20;99.90;;;;;;4994781;28;20189;-83
2023/01/23 06:56:22;;;;;;;93.27;27.80;;;2.30;99.90;;;;;;5013212;28;20448;-83
2023/01/23 06:58:47;;;;;;;90.65;26.02;;;2.20;99.90;;;;;;5011927;28;20188;-83
2023/01/23 07:01:15;;;;;;;86.73;30.30;;;2.20;99.90;;;;;;4994004;28;20225;-83
2023/01/23 07:03:43;;;;;;;89.97;27.10;;;2.20;99.90;;;;;;4994674;28;20166;-83
2023/01/23 07:06:10;;;;;;;93.72;25.38;;;2.30;99.90;;;;;;4994639;28;20175;-82
2023/01/23 07:08:36;;;;;;;87.43;24.30;;;2.20;99.90;;;;;;4993855;28;20190;-81
2023/01/23 07:11:02;;;;;;;84.13;23.70;;;2.20;99.90;;;;;;5011139;28;20210;-81
2023/01/23 07:13:31;;;;;;;85.60;24.42;;;2.30;99.90;;;;;;5011224;28;20759;-81
2023/01/23 07:15:56;;;;;;;88.22;25.25;;;2.20;99.90;;;;;;4993803;28;20205;-81
2023/01/23 07:18:24;;;;;;;90.53;29.13;;;2.30;99.90;;;;;;4994252;28;20646;-81
2023/01/23 07:20:50;;;;;;;89.22;27.60;;;2.30;99.90;;;;;;5011745;28;20452;-81
2023/01/23 07:23:16;;;;;;;86.07;27.40;;;2.40;99.90;;;;;;4993486;28;20162;-81
2023/01/23 07:25:44;;;;;;;87.13;25.50;;;2.40;99.90;;;;;;5011148;28;20174;-83
2023/01/23 07:28:10;;;;;;;85.18;25.90;;;2.40;99.90;;;;;;4993295;28;20605;-83
2023/01/23 07:30:36;;;;;;;83.93;23.37;;;2.40;99.90;;;;;;5010020;28;20210;-83
2023/01/23 07:33:05;;;;;;;85.87;26.13;;;2.40;99.90;;;;;;4993140;28;20170;-83
2023/01/23 07:35:30;;;;;;;82.43;18.30;;;2.40;99.90;;;;;;5008733;28;20170;-83
2023/01/23 07:37:56;;;;;;;87.17;21.37;;;2.30;99.90;;;;;;5008963;28;20169;-83
2023/01/23 07:40:22;;;;;;;83.25;20.73;;;2.40;99.90;;;;;;4990771;28;20194;-83
2023/01/23 07:42:48;;;;;;;83.97;19.50;;;2.40;99.90;;;;;;5010287;28;20205;-82
2023/01/23 07:45:14;;;;;;;83.77;17.77;;;2.50;99.90;;;;;;4991380;28;20174;-81
2023/01/23 07:47:39;;;;;;;81.73;18.27;;;2.40;99.90;;;;;;5008056;28;20236;-81
2023/01/23 07:50:25;;;;;;;82.03;17.93;;;2.50;99.90;;;;;;4992620;28;20593;-82
2023/01/23 07:52:51;;;;;;;82.05;17.58;;;2.40;99.90;;;;;;5007721;28;20417;-81
2023/01/23 07:55:17;;;;;;;85.13;19.47;;;2.40;99.90;;;;;;5010157;28;20194;-81
2023/01/23 07:57:43;;;;;;;84.40;20.33;;;2.50;99.90;;;;;;4992445;28;20197;-81
2023/01/23 08:00:09;;;;;;;83.30;21.27;;;2.50;99.90;;;;;;4992868;28;20250;-81
2023/01/23 08:02:36;;;;;;;85.97;20.73;;;2.50;99.90;;;;;;4992652;28;20454;-81
2023/01/23 08:05:02;;;;;;;84.13;20.75;;;2.50;99.90;;;;;;5010257;28;20201;-81
2023/01/23 08:07:28;;;;;;;79.70;15.00;;;2.50;99.90;;;;;;5010064;28;20163;-81
2023/01/23 08:09:54;;;;;;;83.83;17.27;;;2.50;99.90;;;;;;4991546;28;20440;-81
2023/01/23 08:12:19;;;;;;;81.03;14.90;;;2.50;99.90;;;;;;5009000;28;20174;-81
2023/01/23 08:15:29;;;;;;;85.33;16.50;;;2.40;99.90;;;;;;5009991;28;20425;-81
2023/01/23 08:17:36;;;;;;;83.03;16.70;;;2.50;99.90;;;;;;5001223;28;20179;-81
2023/01/23 08:20:02;;;;;;;83.73;17.80;;;2.50;99.90;;;;;;4991680;28;20248;-81
2023/01/23 08:22:28;;;;;;;84.72;19.45;;;2.60;99.90;;;;;;5009944;28;20460;-81
2023/01/23 08:24:54;;;;;;;85.00;21.03;;;2.60;99.90;;;;;;5009896;28;20666;-81
2023/01/23 08:27:22;;;;;;;82.87;22.03;;;2.60;99.90;;;;;;5009582;28;20167;-81
2023/01/23 08:29:48;;;;;;;81.00;20.73;;;2.70;99.90;;;;;;5009851;28;20402;-81
2023/01/23 08:32:14;;;;;;;82.87;21.67;;;2.70;99.90;;;;;;5008138;28;20230;-81
2023/01/23 08:34:39;;;;;;;85.00;23.43;;;2.80;99.90;;;;;;5007188;28;20174;-81
2023/01/23 08:37:05;;;;;;;85.83;22.00;;;2.80;99.90;;;;;;4992076;28;20317;-81
2023/01/23 08:39:31;;;;;;;86.63;26.10;;;2.90;99.90;;;;;;5009246;28;20171;-81
2023/01/23 08:41:56;;;;;;;86.07;26.13;;;2.90;99.90;;;;;;5009435;28;20485;-81
2023/01/23 08:44:23;;;;;;;83.77;25.90;;;3.00;99.90;;;;;;5009272;28;20162;-81
2023/01/23 08:46:49;;;;;;;85.38;25.15;;;3.00;99.90;;;;;;5009112;28;20178;-81
2023/01/23 08:49:18;;;;;;;86.97;25.10;;;3.00;99.90;;;;;;5009250;28;20179;-81
2023/01/23 08:51:44;;;;;;;84.22;25.45;;;3.00;99.90;;;;;;4991969;28;20490;-81
2023/01/23 08:54:12;;;;;;;82.97;20.87;;;3.00;99.90;;;;;;5009227;28;20174;-81
2023/01/23 08:56:40;;;;;;;81.38;23.40;;;3.00;99.90;;;;;;5009526;28;20230;-81
2023/01/23 08:59:05;;;;;;;85.63;23.08;;;3.10;99.90;;;;;;4991028;28;20182;-81
2023/01/23 09:01:31;;;;;;;83.13;20.33;;;3.10;99.90;;;;;;5008284;28;20592;-81
2023/01/23 09:03:57;;;;;;;82.30;21.15;;;3.00;99.90;;;;;;4991019;28;20413;-81
2023/01/23 09:06:23;;;;;;;83.17;20.20;;;3.00;99.90;;;;;;5008838;28;20210;-81
2023/01/23 09:08:49;;;;;;;84.90;22.47;;;3.00;99.90;;;;;;5008778;28;20163;-81
2023/01/23 09:11:16;;;;;;;82.77;19.90;;;3.00;99.90;;;;;;5008155;28;20437;-81
2023/01/23 09:13:41;;;;;;;82.97;17.98;;;3.00;99.90;;;;;;5008222;28;20452;-81
2023/01/23 09:16:07;;;;;;;81.93;21.83;;;3.00;99.90;;;;;;5009000;28;20163;-81
2023/01/23 09:18:33;;;;;;;86.60;21.92;;;3.10;99.90;;;;;;5008950;28;20167;-81
2023/01/23 09:21:04;;;;;;;83.50;21.08;;;3.00;99.90;;;;;;5009401;28;20186;-81
2023/01/23 09:23:29;;;;;;;85.22;21.75;;;3.10;99.90;;;;;;5008571;28;20514;-81
2023/01/23 09:26:00;;;;;;;88.43;22.23;;;3.10;99.90;;;;;;4991512;28;20174;-81
2023/01/23 09:28:26;;;;;;;85.97;21.95;;;3.10;99.90;;;;;;4991735;28;20163;-81
2023/01/23 09:30:52;;;;;;;82.73;19.43;;;3.10;99.90;;;;;;4990702;28;20186;-82
2023/01/23 09:33:23;;;;;;;82.17;17.43;;;3.10;99.90;;;;;;4991104;28;20213;-81
2023/01/23 09:35:52;;;;;;;88.18;19.30;;;3.10;99.90;;;;;;5008503;28;20465;-81
2023/01/23 09:38:17;;;;;;;87.28;18.90;;;3.10;99.90;;;;;;5008462;28;20265;-81
2023/01/23 09:40:52;;;;;;;81.10;18.93;;;3.10;99.90;;;;;;4991201;28;20194;-81
2023/01/23 09:43:41;;;;;;;81.70;17.83;;;3.10;99.90;;;;;;4991430;28;20228;-81
2023/01/23 09:46:18;;;;;;;85.38;19.98;;;3.10;99.90;;;;;;5008358;28;20591;-81
2023/01/23 09:49:12;;;;;;;83.40;19.17;;;3.10;99.90;;;;;;4991105;28;20166;-83
2023/01/23 09:51:56;;;;;;;88.88;20.75;;;3.10;99.90;;;;;;4997052;28;20202;-83
2023/01/23 09:55:03;;;;;;;84.18;18.60;;;3.10;99.90;;;;;;4990659;28;20250;-83
2023/01/23 09:57:44;;;;;;;80.57;18.63;;;3.10;99.90;;;;;;4990905;28;20174;-83
2023/01/23 10:00:22;;;;;;;87.25;19.73;;;3.20;99.90;;;;;;5007868;28;20259;-83
2023/01/23 10:02:48;;;;;;;90.80;20.70;;;3.20;99.90;;;;;;4990176;28;20186;-83
2023/01/23 10:05:21;;;;;;;95.03;24.90;;;3.20;99.90;;;;;;4991340;28;20174;-83
2023/01/23 10:07:59;;;;;;;89.80;25.67;;;3.20;99.90;;;;;;4990635;28;20406;-83
2023/01/23 10:10:28;;;;;;;84.63;20.90;;;3.20;99.90;;;;;;4987482;28;20218;-81
2023/01/23 10:12:56;;;;;;;85.38;20.10;;;3.20;99.90;;;;;;4990454;28;20246;-81
2023/01/23 10:16:01;;;;;;;83.88;18.67;;;3.20;99.90;;;;;;4991519;28;20170;-81
2023/01/23 10:18:46;;;;;;;83.95;20.65;;;3.20;99.90;;;;;;4994010;28;20155;-81
2023/01/23 10:21:27;;;;;;;85.97;20.92;;;3.20;99.90;;;;;;5011606;28;20220;-81
2023/01/23 10:24:27;;;;;;;88.28;22.42;;;3.20;99.90;;;;;;4993869;28;20162;-81
2023/01/23 10:26:59;;;;;;;84.70;23.40;;;3.30;99.90;;;;;;4994235;28;20618;-81
2023/01/23 10:29:29;;;;;;;82.78;23.17;;;3.30;99.90;;;;;;5011493;28;20151;-81
2023/01/23 10:31:57;;;;;;;83.78;24.58;;;3.40;99.90;;;;;;4993930;28;20191;-81
2023/01/23 10:34:38;;;;;;;83.30;23.40;;;3.50;99.90;;;;;;5011795;28;20686;-81
2023/01/23 10:37:40;;;;;;;86.35;24.80;;;3.50;99.90;;;;;;4994053;28;20186;-81
2023/01/23 10:41:12;;;;;;;82.82;18.27;;;3.50;99.90;;;;;;4932323;29;20258;-81
2023/01/23 10:43:15;;;;;;;83.85;19.98;;;3.60;99.90;;;;;;5010590;28;20210;-83
2023/01/23 10:45:42;;;;;;;83.47;20.23;;;3.60;99.90;;;;;;4993445;28;20177;-83
2023/01/23 10:48:36;;;;;;;79.60;16.20;;;3.60;99.90;;;;;;5011176;28;20167;-83
2023/01/23 10:51:03;;;;;;;79.20;18.27;;;3.70;99.90;;;;;;4993846;28;20191;-83
2023/01/23 10:53:28;;;;;;;78.43;15.27;;;3.60;99.90;;;;;;4993701;28;20166;-83
2023/01/23 10:55:58;;;;;;;84.27;18.00;;;3.70;99.90;;;;;;4993418;28;20244;-83
2023/01/23 10:58:35;;;;;;;83.72;16.40;;;3.60;99.90;;;;;;5009931;28;20433;-83
2023/01/23 11:01:03;;;;;;;85.68;19.25;;;3.60;99.90;;;;;;4993371;28;20197;-83
2023/01/23 11:03:31;;;;;;;82.88;17.00;;;3.60;99.90;;;;;;4993103;28;20170;-83
2023/01/23 11:06:08;;;;;;;79.47;13.82;;;3.70;99.90;;;;;;5010403;28;20530;-83
2023/01/23 11:08:39;;;;;;;78.68;13.57;;;3.80;99.90;;;;;;5010108;28;20189;-83
2023/01/23 11:11:14;;;;;;;79.53;13.45;;;3.80;99.90;;;;;;4992854;28;20191;-83
2023/01/23 11:13:44;;;;;;;76.78;13.50;;;3.80;99.90;;;;;;4992461;28;20596;-83
2023/01/23 11:16:19;;;;;;;76.68;11.25;;;3.90;99.90;;;;;;5010045;28;20293;-83
2023/01/23 11:18:54;;;;;;;79.40;13.32;;;3.90;99.90;;;;;;5005191;23;20193;-85
2023/01/23 11:21:30;;;;;;;78.07;12.20;;;3.90;99.90;;;;;;5002005;28;20557;-85
2023/01/23 11:24:27;;;;;;;74.85;11.95;;;4.00;99.90;;;;;;5002126;28;20170;-85
2023/01/23 11:27:18;;;;;;;76.07;12.18;;;4.00;99.90;;;;;;5001816;28;20167;-85
2023/01/23 11:30:10;;;;;;;76.47;11.38;;;4.00;99.90;;;;;;5002376;28;20155;-85
2023/01/23 11:32:58;;;;;;;74.05;11.48;;;4.00;99.90;;;;;;5002517;28;20258;-85
2023/01/23 11:35:54;;;;;;;78.20;11.90;;;4.10;99.90;;;;;;5001980;28;20150;-85
2023/01/23 11:38:29;;;;;;;77.93;12.10;;;4.10;99.90;;;;;;4983896;28;20177;-85
2023/01/23 11:41:01;;;;;;;78.18;13.10;;;4.20;99.90;;;;;;4984549;28;20244;-85
2023/01/23 11:43:30;;;;;;;77.45;11.15;;;4.30;99.90;;;;;;5001751;28;20154;-85
2023/01/23 11:46:05;;;;;;;78.45;12.07;;;4.30;99.90;;;;;;5001879;28;20618;-85
2023/01/23 11:48:59;;;;;;;71.40;9.02;;;4.30;99.90;;;;;;5002096;28;20168;-85
2023/01/23 11:51:45;;;;;;;71.03;8.18;;;4.30;99.90;;;;;;5001966;28;20193;-85
2023/01/23 11:54:25;;;;;;;72.53;9.18;;;4.40;99.90;;;;;;5001577;28;20235;-85
2023/01/23 11:57:12;;;;;;;74.90;10.02;;;4.30;99.90;;;;;;5001523;28;20221;-85
2023/01/23 11:59:49;;;;;;;73.30;8.30;;;4.30;99.90;;;;;;5001250;28;20645;-85
2023/01/23 12:02:34;;;;;;;71.68;9.10;;;4.30;99.90;;;;;;5001773;28;20178;-85
2023/01/23 12:05:47;;;;;;;69.00;8.38;;;4.30;99.90;;;;;;5001659;28;20234;-85
2023/01/23 12:08:21;;;;;;;69.10;9.05;;;4.20;99.90;;;;;;5001177;28;20186;-85
2023/01/23 12:11:12;;;;;;;68.57;7.65;;;4.30;99.90;;;;;;4983737;28;20185;-85
2023/01/23 12:14:09;;;;;;;70.55;9.32;;;4.30;99.90;;;;;;4984088;28;20527;-85
2023/01/23 12:16:56;;;;;;;71.53;9.80;;;4.40;99.90;;;;;;4984029;28;20170;-85
2023/01/23 12:19:59;;;;;;;70.25;9.35;;;4.30;99.70;;;;;;5000766;28;20178;-85
2023/01/23 12:22:37;;;;;;;77.80;10.13;;;4.30;94.10;;;;;;5000958;28;20554;-85
2023/01/23 12:25:17;;;;;;;70.65;8.52;;;4.20;73.10;;;;;;5000467;28;20146;-85
2023/01/23 12:27:46;;;;;;;71.90;9.70;;;4.20;63.30;;;;;;4982640;28;20170;-85
2023/01/23 12:30:38;;;;;;;73.30;9.65;;;4.30;60.80;;;;;;4999909;28;20672;-84
2023/01/23 12:33:17;;;;;;;71.85;9.20;;;4.20;55.90;;;;;;5000163;28;20186;-85
2023/01/23 12:36:12;;;;;;;70.90;8.23;;;4.20;55.10;;;;;;5000083;28;20151;-85
2023/01/23 12:38:59;;;;;;;71.38;9.35;;;4.30;48.50;;;;;;4999966;28;20161;-85
2023/01/23 12:41:35;;;;;;;68.22;8.40;;;4.20;46.60;;;;;;4999846;28;20202;-84
2023/01/23 12:44:28;;;;;;;70.18;8.27;;;4.20;48.10;;;;;;4982311;28;20158;-85
2023/01/23 12:46:57;;;;;;;67.50;7.50;;;4.20;52.00;;;;;;5000338;28;20147;-85
2023/01/23 12:49:29;;;;;;;70.63;9.02;;;4.10;52.30;;;;;;5000515;28;20171;-84
2023/01/23 12:52:22;;;;;;;71.75;8.50;;;4.10;52.40;;;;;;4982428;28;20258;-85
2023/01/23 12:55:14;;;;;;;72.88;9.95;;;4.10;55.00;;;;;;5000666;28;20159;-84
2023/01/23 12:57:50;;;;;;;76.72;9.82;;;4.20;52.60;;;;;;4999924;28;20178;-85
2023/01/23 13:00:34;;;;;;;73.88;9.23;;;4.20;51.10;;;;;;5000038;28;20190;-85
2023/01/23 13:03:20;;;;;;;78.28;9.75;;;4.30;52.10;;;;;;5000028;28;20217;-84
2023/01/23 13:05:58;;;;;;;69.20;8.00;;;4.30;46.30;;;;;;4982997;28;20210;-84
2023/01/23 13:08:40;;;;;;;68.47;7.90;;;4.30;46.80;;;;;;4999832;28;20649;-84
2023/01/23 13:11:57;;;;;;;68.93;7.75;;;4.30;42.70;;;;;;4999939;28;20662;-84
2023/01/23 13:14:29;;;;;;;68.68;7.72;;;4.20;42.40;;;;;;4984735;28;20205;-84
2023/01/23 13:17:01;;;;;;;74.47;8.85;;;4.20;44.00;;;;;;4999277;28;20178;-84
2023/01/23 13:22:29;;;;;;;69.93;7.70;;;4.20;42.10;;;;;;5000344;28;20217;-85
2023/01/23 13:25:17;;;;;;;69.18;8.30;;;4.20;37.80;;;;;;5000116;28;20181;-85
2023/01/23 13:27:54;;;;;;;72.00;8.05;;;4.20;41.10;;;;;;4983893;28;20159;-84
2023/01/23 13:30:30;;;;;;;69.60;7.78;;;4.20;38.00;;;;;;4982479;28;20186;-84
2023/01/23 13:33:00;;;;;;;70.55;8.70;;;4.30;36.30;;;;;;5000129;28;20172;-85
2023/01/23 13:35:38;;;;;;;69.70;8.90;;;4.20;42.10;;;;;;5000520;28;20178;-84
2023/01/23 13:38:24;;;;;;;71.00;8.88;;;4.30;42.30;;;;;;4982333;28;20694;-85
2023/01/23 13:41:13;;;;;;;71.40;9.75;;;4.40;39.60;;;;;;4983049;28;20186;-84